createdAt,value
2022-11-09T00:01:11.285Z,1.20
2022-11-09T00:03:13.289Z,1.60
2022-11-09T00:05:15.028Z,1.17
2022-11-09T00:07:16.807Z,0.90
2022-11-09T00:09:18.704Z,0.75
2022-11-09T00:11:20.909Z,1.20
2022-11-09T00:13:22.897Z,1.25
2022-11-09T00:15:24.825Z,0.98
2022-11-09T00:17:26.486Z,1.23
2022-11-09T00:19:28.134Z,0.95
2022-11-09T00:21:29.882Z,1.58
2022-11-09T00:23:31.792Z,1.00
2022-11-09T00:25:33.442Z,1.10
2022-11-09T00:27:35.077Z,1.02
2022-11-09T00:29:36.655Z,1.00
2022-11-09T00:31:38.340Z,1.23
2022-11-09T00:33:40.254Z,1.17
2022-11-09T00:35:41.900Z,1.00
2022-11-09T00:37:43.707Z,1.25
2022-11-09T00:39:45.482Z,1.10
2022-11-09T00:41:47.112Z,1.73
2022-11-09T00:43:49.316Z,0.90
2022-11-09T00:45:51.135Z,0.82
2022-11-09T00:47:52.788Z,0.80
2022-11-09T00:49:54.477Z,1.00
2022-11-09T00:51:56.535Z,0.93
2022-11-09T00:53:58.607Z,1.00
2022-11-09T00:56:04.343Z,0.80
2022-11-09T00:58:05.983Z,1.25
2022-11-09T01:00:08.120Z,0.95
2022-11-09T01:02:09.779Z,1.05
2022-11-09T01:04:11.422Z,1.23
2022-11-09T01:06:21.550Z,1.40
2022-11-09T01:08:23.152Z,1.20
2022-11-09T01:10:24.781Z,1.20
2022-11-09T01:12:26.439Z,0.85
2022-11-09T01:14:28.093Z,1.00
2022-11-09T01:16:30.000Z,0.80
2022-11-09T01:18:31.736Z,1.05
2022-11-09T01:20:33.402Z,0.88
2022-11-09T01:22:35.171Z,1.00
2022-11-09T01:24:37.243Z,1.05
2022-11-09T01:26:38.897Z,0.80
2022-11-09T01:28:40.948Z,0.70
2022-11-09T01:30:43.444Z,0.80
2022-11-09T01:32:45.109Z,1.02
2022-11-09T01:34:46.787Z,0.80
2022-11-09T01:36:52.005Z,0.70
2022-11-09T01:38:53.989Z,0.88
2022-11-09T01:40:55.890Z,0.63
2022-11-09T01:42:57.887Z,0.77
2022-11-09T01:45:17.525Z,0.80
2022-11-09T01:47:25.702Z,0.82
2022-11-09T01:49:27.282Z,1.27
2022-11-09T01:51:41.871Z,1.08
2022-11-09T01:53:46.553Z,1.00
2022-11-09T01:55:51.619Z,1.05
2022-11-09T01:58:03.932Z,0.98
2022-11-09T02:00:08.734Z,0.90
2022-11-09T02:02:10.932Z,1.00
2022-11-09T02:04:15.103Z,0.80
2022-11-09T02:06:18.482Z,0.93
2022-11-09T02:08:21.462Z,0.85
2022-11-09T02:10:25.526Z,0.70
2022-11-09T02:12:33.726Z,0.95
2022-11-09T02:14:36.021Z,0.73
2022-11-09T02:16:37.826Z,0.60
2022-11-09T02:18:43.513Z,0.77
2022-11-09T02:20:50.497Z,0.88
2022-11-09T02:22:52.247Z,0.60
2022-11-09T02:24:56.278Z,0.80
2022-11-09T02:26:58.406Z,0.75
2022-11-09T02:29:02.565Z,0.73
2022-11-09T02:31:05.126Z,1.20
2022-11-09T02:33:06.838Z,0.70
2022-11-09T02:35:08.704Z,0.90
2022-11-09T02:37:10.381Z,1.10
2022-11-09T02:39:13.735Z,0.82
2022-11-09T02:41:16.492Z,0.50
2022-11-09T02:43:19.382Z,0.60
2022-11-09T02:45:21.238Z,0.70
2022-11-09T02:47:22.874Z,0.70
2022-11-09T02:49:24.481Z,0.85
2022-11-09T02:51:26.282Z,0.73
2022-11-09T02:53:27.966Z,0.90
2022-11-09T02:55:29.593Z,0.70
2022-11-09T02:57:31.229Z,0.60
2022-11-09T02:59:32.905Z,0.90
2022-11-09T03:01:34.635Z,0.65
2022-11-09T03:03:36.375Z,0.65
2022-11-09T03:05:38.075Z,0.60
2022-11-09T03:07:39.736Z,0.70
2022-11-09T03:09:41.425Z,0.70
2022-11-09T03:11:43.422Z,0.70
2022-11-09T03:13:45.042Z,0.80
2022-11-09T03:15:46.779Z,0.85
2022-11-09T03:17:48.397Z,0.93
2022-11-09T03:19:50.174Z,0.85
2022-11-09T03:21:51.867Z,0.65
2022-11-09T03:23:54.254Z,0.88
2022-11-09T03:25:55.916Z,0.70
2022-11-09T03:28:02.016Z,0.60
2022-11-09T03:30:04.413Z,0.70
2022-11-09T03:32:06.632Z,0.60
2022-11-09T03:34:08.228Z,0.98
2022-11-09T03:36:10.092Z,0.93
2022-11-09T03:38:12.198Z,0.80
2022-11-09T03:40:13.813Z,0.80
2022-11-09T03:42:15.453Z,0.60
2022-11-09T03:44:17.077Z,0.68
2022-11-09T03:46:18.725Z,0.75
2022-11-09T03:48:20.341Z,0.60
2022-11-09T03:50:22.000Z,0.70
2022-11-09T03:52:23.652Z,0.60
2022-11-09T03:54:25.266Z,0.60
2022-11-09T03:56:26.917Z,0.68
2022-11-09T03:58:28.520Z,0.60
2022-11-09T04:00:30.597Z,0.95
2022-11-09T04:02:32.209Z,1.02
2022-11-09T04:04:33.902Z,0.95
2022-11-09T04:06:35.718Z,0.90
2022-11-09T04:08:37.417Z,0.60
2022-11-09T04:10:39.064Z,0.80
2022-11-09T04:12:40.771Z,0.65
2022-11-09T04:14:42.350Z,0.80
2022-11-09T04:16:43.995Z,0.57
2022-11-09T04:18:45.698Z,0.65
2022-11-09T04:20:47.360Z,0.55
2022-11-09T04:23:02.685Z,0.85
2022-11-09T04:25:05.463Z,0.80
2022-11-09T04:27:07.290Z,0.85
2022-11-09T04:29:10.120Z,0.68
2022-11-09T04:31:11.803Z,0.70
2022-11-09T04:33:13.403Z,0.80
2022-11-09T04:35:15.105Z,0.90
2022-11-09T04:37:16.754Z,1.05
2022-11-09T04:39:18.404Z,0.85
2022-11-09T04:41:20.134Z,0.68
2022-11-09T04:43:22.034Z,0.95
2022-11-09T04:45:23.995Z,1.40
2022-11-09T04:47:25.706Z,1.08
2022-11-09T04:49:27.329Z,0.93
2022-11-09T04:51:29.316Z,0.85
2022-11-09T04:53:31.266Z,0.80
2022-11-09T04:55:33.032Z,0.85
2022-11-09T04:57:34.708Z,0.60
2022-11-09T04:59:36.321Z,0.80
2022-11-09T05:01:38.049Z,0.70
2022-11-09T05:03:40.352Z,0.80
2022-11-09T05:05:47.943Z,1.05
2022-11-09T05:07:50.009Z,0.70
2022-11-09T05:09:51.601Z,0.90
2022-11-09T05:11:53.222Z,1.02
2022-11-09T05:13:54.856Z,0.70
2022-11-09T05:15:56.542Z,0.90
2022-11-09T05:17:58.576Z,1.10
2022-11-09T05:20:00.246Z,1.15
2022-11-09T05:22:21.813Z,1.05
2022-11-09T05:24:23.479Z,1.30
2022-11-09T05:26:36.809Z,0.90
2022-11-09T05:28:38.539Z,0.85
2022-11-09T05:30:40.572Z,1.00
2022-11-09T05:32:42.176Z,1.00
2022-11-09T05:34:43.796Z,0.82
2022-11-09T05:36:45.420Z,0.80
2022-11-09T05:38:47.215Z,1.50
2022-11-09T05:40:50.805Z,0.90
2022-11-09T05:42:52.485Z,0.85
2022-11-09T05:44:55.707Z,1.25
2022-11-09T05:46:57.311Z,0.80
2022-11-09T05:48:58.947Z,1.13
2022-11-09T05:51:02.568Z,0.80
2022-11-09T05:53:04.297Z,0.70
2022-11-09T05:55:06.766Z,1.10
2022-11-09T05:57:08.599Z,0.60
2022-11-09T05:59:12.870Z,0.73
2022-11-09T06:01:25.930Z,0.82
2022-11-09T06:03:27.804Z,0.82
2022-11-09T06:05:29.503Z,0.70
2022-11-09T06:07:31.085Z,0.80
2022-11-09T06:09:33.419Z,1.02
2022-11-09T06:11:35.158Z,0.70
2022-11-09T06:13:37.289Z,0.77
2022-11-09T06:15:38.949Z,0.70
2022-11-09T06:17:40.607Z,0.47
2022-11-09T06:19:42.344Z,0.63
2022-11-09T06:21:44.383Z,0.70
2022-11-09T06:23:46.112Z,0.60
2022-11-09T06:25:48.910Z,0.63
2022-11-09T06:27:55.965Z,0.80
2022-11-09T06:30:01.384Z,0.70
2022-11-09T06:32:03.091Z,0.80
2022-11-09T06:34:04.851Z,0.70
2022-11-09T06:36:08.300Z,0.70
2022-11-09T06:38:11.539Z,0.60
2022-11-09T06:40:14.020Z,0.70
2022-11-09T06:42:18.688Z,0.70
2022-11-09T06:44:20.743Z,0.82
2022-11-09T06:46:22.579Z,0.68
2022-11-09T06:48:24.951Z,0.80
2022-11-09T06:50:28.627Z,0.60
2022-11-09T06:52:30.412Z,0.55
2022-11-09T06:54:32.799Z,0.95
2022-11-09T06:56:34.955Z,0.70
2022-11-09T06:58:42.116Z,0.75
2022-11-09T07:00:49.013Z,0.90
2022-11-09T07:02:55.847Z,0.60
2022-11-09T07:04:57.593Z,0.60
2022-11-09T07:06:59.508Z,0.73
2022-11-09T07:09:01.426Z,0.68
2022-11-09T07:11:11.315Z,0.60
2022-11-09T07:13:13.045Z,0.60
2022-11-09T07:15:14.997Z,0.60
2022-11-09T07:17:16.951Z,0.90
2022-11-09T07:19:18.705Z,0.80
2022-11-09T07:21:32.863Z,0.45
2022-11-09T07:23:38.878Z,0.60
2022-11-09T07:25:45.178Z,0.60
2022-11-09T07:27:47.102Z,0.88
2022-11-09T07:29:48.721Z,0.50
2022-11-09T07:31:50.364Z,0.77
2022-11-09T07:33:52.002Z,0.80
2022-11-09T07:35:53.734Z,0.70
2022-11-09T07:37:59.761Z,0.60
2022-11-09T07:40:05.015Z,0.60
2022-11-09T07:42:06.891Z,1.23
2022-11-09T07:44:21.170Z,0.55
2022-11-09T07:46:28.214Z,0.70
2022-11-09T07:48:29.902Z,0.70
2022-11-09T07:50:33.081Z,0.60
2022-11-09T07:52:34.789Z,0.95
2022-11-09T07:54:36.528Z,0.70
2022-11-09T07:56:38.854Z,0.63
2022-11-09T07:58:40.661Z,0.70
2022-11-09T08:00:53.693Z,0.70
2022-11-09T08:02:56.530Z,0.63
2022-11-09T08:05:01.421Z,0.60
2022-11-09T08:07:03.191Z,0.77
2022-11-09T08:09:04.932Z,0.55
2022-11-09T08:11:19.118Z,0.70
2022-11-09T08:13:44.211Z,0.80
2022-11-09T08:15:48.005Z,1.15
2022-11-09T08:18:00.990Z,0.63
2022-11-09T08:20:17.011Z,0.50
2022-11-09T08:22:33.344Z,1.00
2022-11-09T08:24:47.292Z,0.60
2022-11-09T08:26:58.956Z,0.70
2022-11-09T08:29:00.804Z,0.57
2022-11-09T08:31:05.462Z,0.70
2022-11-09T08:33:11.601Z,0.70
2022-11-09T08:35:37.145Z,0.57
2022-11-09T08:37:59.009Z,0.70
2022-11-09T08:40:04.542Z,0.65
2022-11-09T08:42:09.241Z,0.60
2022-11-09T08:44:11.011Z,0.70
2022-11-09T08:46:19.999Z,0.50
2022-11-09T08:48:21.957Z,0.68
2022-11-09T08:50:24.292Z,1.00
2022-11-09T08:52:26.365Z,0.80
2022-11-09T08:54:43.698Z,0.80
2022-11-09T08:56:46.781Z,0.60
2022-11-09T08:58:48.632Z,0.60
2022-11-09T09:00:57.516Z,0.70
2022-11-09T09:03:07.435Z,0.63
2022-11-09T09:05:09.585Z,0.95
2022-11-09T09:07:11.537Z,0.80
2022-11-09T09:09:27.186Z,0.70
2022-11-09T09:11:43.656Z,0.65
2022-11-09T09:13:53.700Z,0.50
2022-11-09T09:16:30.690Z,0.55
2022-11-09T09:18:38.625Z,0.70
2022-11-09T09:20:42.243Z,0.70
2022-11-09T09:22:44.840Z,0.70
2022-11-09T09:24:46.516Z,0.75
2022-11-09T09:26:48.421Z,0.60
2022-11-09T09:28:51.428Z,0.70
2022-11-09T09:30:53.413Z,1.05
2022-11-09T09:33:01.271Z,0.55
2022-11-09T09:35:03.007Z,0.65
2022-11-09T09:37:04.634Z,0.50
2022-11-09T09:39:06.658Z,0.52
2022-11-09T09:41:17.425Z,1.20
2022-11-09T09:43:31.176Z,0.70
2022-11-09T09:45:34.613Z,0.57
2022-11-09T09:48:01.122Z,0.70
2022-11-09T09:50:10.248Z,0.82
2022-11-09T09:52:31.017Z,0.70
2022-11-09T09:54:44.661Z,0.65
2022-11-09T09:56:47.738Z,0.70
2022-11-09T09:58:53.700Z,0.70
2022-11-09T10:01:07.793Z,0.73
2022-11-09T10:03:20.635Z,0.70
2022-11-09T10:05:48.192Z,0.70
2022-11-09T10:07:59.313Z,0.50
2022-11-09T10:10:12.114Z,0.70
2022-11-09T10:12:32.763Z,0.90
2022-11-09T10:15:07.023Z,0.60
2022-11-09T10:17:26.649Z,0.57
2022-11-09T10:19:58.249Z,0.80
2022-11-09T10:22:27.002Z,1.17
2022-11-09T10:24:32.038Z,0.60
2022-11-09T10:27:00.285Z,0.82
2022-11-09T10:29:16.821Z,0.70
2022-11-09T10:31:21.731Z,0.70
2022-11-09T10:33:24.578Z,0.70
2022-11-09T10:35:31.473Z,0.63
2022-11-09T10:37:55.129Z,0.50
2022-11-09T10:39:58.622Z,0.85
2022-11-09T10:42:00.714Z,0.60
2022-11-09T10:44:17.119Z,0.90
2022-11-09T10:46:21.348Z,0.40
2022-11-09T10:48:32.054Z,0.80
2022-11-09T10:50:52.640Z,0.73
2022-11-09T10:53:08.710Z,0.80
2022-11-09T10:55:28.751Z,0.68
2022-11-09T10:57:30.591Z,0.60
2022-11-09T11:00:06.386Z,0.50
2022-11-09T11:02:26.260Z,1.15
2022-11-09T11:04:28.178Z,0.95
2022-11-09T11:06:46.951Z,0.50
2022-11-09T11:08:58.463Z,0.50
2022-11-09T11:11:34.180Z,0.50
2022-11-09T11:13:38.060Z,0.60
2022-11-09T11:15:42.647Z,0.80
2022-11-09T11:17:45.776Z,0.50
2022-11-09T11:19:47.568Z,0.40
2022-11-09T11:22:08.326Z,0.90
2022-11-09T11:24:17.987Z,0.70
2022-11-09T11:26:19.743Z,0.63
2022-11-09T11:28:51.436Z,0.65
2022-11-09T11:30:53.362Z,1.00
2022-11-09T11:32:55.831Z,0.60
2022-11-09T11:35:00.709Z,0.50
2022-11-09T11:37:20.700Z,0.60
2022-11-09T11:39:48.159Z,0.80
2022-11-09T11:42:00.246Z,0.88
2022-11-09T11:44:08.817Z,2.10
2022-11-09T11:46:22.349Z,0.98
2022-11-09T11:48:46.176Z,1.55
2022-11-09T11:51:14.279Z,0.73
2022-11-09T11:53:47.902Z,0.52
2022-11-09T11:56:02.272Z,0.70
2022-11-09T11:58:23.689Z,0.68
2022-11-09T12:00:26.331Z,0.68
2022-11-09T12:02:50.137Z,0.70
2022-11-09T12:05:19.758Z,0.80
2022-11-09T12:07:42.300Z,0.70
2022-11-09T12:09:49.887Z,0.85
2022-11-09T12:12:24.030Z,0.75
2022-11-09T12:14:34.315Z,0.70
2022-11-09T12:16:40.595Z,0.75
2022-11-09T12:19:12.988Z,0.60
2022-11-09T12:21:40.060Z,0.60
2022-11-09T12:23:52.597Z,0.80
2022-11-09T12:26:37.241Z,1.02
2022-11-09T12:28:41.577Z,0.88
2022-11-09T12:30:45.865Z,0.75
2022-11-09T12:32:52.437Z,0.70
2022-11-09T12:35:29.510Z,0.60
2022-11-09T12:37:37.792Z,0.95
2022-11-09T12:40:22.898Z,0.90
2022-11-09T12:42:34.858Z,0.68
2022-11-09T12:44:55.139Z,0.55
2022-11-09T12:47:08.104Z,0.70
2022-11-09T12:49:40.809Z,0.85
2022-11-09T12:51:42.845Z,0.60
2022-11-09T12:53:44.493Z,1.25
2022-11-09T12:55:59.775Z,1.23
2022-11-09T12:58:01.610Z,0.77
2022-11-09T13:00:04.641Z,0.77
2022-11-09T13:02:22.125Z,1.05
2022-11-09T13:04:25.424Z,0.70
2022-11-09T13:06:33.956Z,0.40
2022-11-09T13:08:42.344Z,0.90
2022-11-09T13:10:44.116Z,1.17
2022-11-09T13:12:46.064Z,1.00
2022-11-09T13:14:48.324Z,0.60
2022-11-09T13:16:50.622Z,0.55
2022-11-09T13:18:52.954Z,0.60
2022-11-09T13:20:56.811Z,0.93
2022-11-09T13:23:05.392Z,0.70
2022-11-09T13:25:44.380Z,0.63
2022-11-09T13:27:47.847Z,1.50
2022-11-09T13:29:55.118Z,0.70
2022-11-09T13:32:24.786Z,0.80
2022-11-09T13:35:05.774Z,0.88
2022-11-09T13:37:35.311Z,0.90
2022-11-09T13:39:38.419Z,0.70
2022-11-09T13:41:41.533Z,1.00
2022-11-09T13:43:43.303Z,0.70
2022-11-09T13:46:02.621Z,0.85
2022-11-09T13:48:24.073Z,0.80
2022-11-09T13:50:36.244Z,0.70
2022-11-09T13:52:44.261Z,0.95
2022-11-09T13:54:46.349Z,1.00
2022-11-09T13:56:48.176Z,0.63
2022-11-09T13:59:19.421Z,0.60
2022-11-09T14:01:48.573Z,0.57
2022-11-09T14:03:51.994Z,0.90
2022-11-09T14:06:09.000Z,0.70
2022-11-09T14:08:40.070Z,0.80
2022-11-09T14:10:58.612Z,0.80
2022-11-09T14:13:33.724Z,0.88
2022-11-09T14:15:47.435Z,0.80
2022-11-09T14:17:58.174Z,0.98
2022-11-09T14:20:18.083Z,0.80
2022-11-09T14:22:20.425Z,0.93
2022-11-09T14:24:25.267Z,0.75
2022-11-09T14:26:33.264Z,0.90
2022-11-09T14:28:36.590Z,1.02
2022-11-09T14:30:44.723Z,0.70
2022-11-09T14:32:56.974Z,1.40
2022-11-09T14:35:26.481Z,1.00
2022-11-09T14:37:28.647Z,0.80
2022-11-09T14:39:37.373Z,0.68
2022-11-09T14:41:43.807Z,0.80
2022-11-09T14:43:45.770Z,0.80
2022-11-09T14:45:52.606Z,0.80
2022-11-09T14:48:00.482Z,0.70
2022-11-09T14:50:02.262Z,0.85
2022-11-09T14:52:04.109Z,2.03
2022-11-09T14:54:16.043Z,1.65
2022-11-09T14:56:19.991Z,1.80
2022-11-09T14:58:22.618Z,1.27
2022-11-09T15:00:28.229Z,1.13
2022-11-09T15:02:29.899Z,1.40
2022-11-09T15:05:04.028Z,1.00
2022-11-09T15:07:05.977Z,0.95
2022-11-09T15:09:09.027Z,0.80
2022-11-09T15:11:10.898Z,0.80
2022-11-09T15:13:12.595Z,0.70
2022-11-09T15:15:24.590Z,0.65
2022-11-09T15:17:35.286Z,0.52
2022-11-09T15:19:39.520Z,0.70
2022-11-09T15:21:41.318Z,0.88
2022-11-09T15:23:48.324Z,1.00
2022-11-09T15:25:50.731Z,0.70
2022-11-09T15:28:03.550Z,0.73
2022-11-09T15:30:05.738Z,0.85
2022-11-09T15:32:19.059Z,0.77
2022-11-09T15:34:27.979Z,0.90
2022-11-09T15:36:33.586Z,0.88
2022-11-09T15:38:40.676Z,0.60
2022-11-09T15:40:42.368Z,0.70
2022-11-09T15:42:46.339Z,0.80
2022-11-09T15:44:58.763Z,0.82
2022-11-09T15:47:00.684Z,0.85
2022-11-09T15:49:21.359Z,1.20
2022-11-09T15:51:23.340Z,0.60
2022-11-09T15:53:25.185Z,0.70
2022-11-09T15:55:27.199Z,1.30
2022-11-09T15:57:28.853Z,1.98
2022-11-09T15:59:30.819Z,1.50
2022-11-09T16:01:32.990Z,1.65
2022-11-09T16:03:34.650Z,1.45
2022-11-09T16:05:36.400Z,1.52
2022-11-09T16:07:38.426Z,1.75
2022-11-09T16:09:41.070Z,1.80
2022-11-09T16:11:42.784Z,1.48
2022-11-09T16:13:44.521Z,1.20
2022-11-09T16:15:46.203Z,1.05
2022-11-09T16:17:50.305Z,0.80
2022-11-09T16:19:52.514Z,1.15
2022-11-09T16:21:54.737Z,1.23
2022-11-09T16:23:58.603Z,1.20
2022-11-09T16:26:05.314Z,0.98
2022-11-09T16:28:07.191Z,0.98
2022-11-09T16:30:10.114Z,0.80
2022-11-09T16:32:11.753Z,1.65
2022-11-09T16:34:13.406Z,1.27
2022-11-09T16:36:17.993Z,0.80
2022-11-09T16:38:19.951Z,1.42
2022-11-09T16:40:21.870Z,0.70
2022-11-09T16:42:23.754Z,2.08
2022-11-09T16:44:25.703Z,1.70
2022-11-09T16:46:28.693Z,0.80
2022-11-09T16:48:33.239Z,1.30
2022-11-09T16:50:35.029Z,0.90
2022-11-09T16:52:36.904Z,0.73
2022-11-09T16:54:38.613Z,1.20
2022-11-09T16:56:40.504Z,1.00
2022-11-09T16:58:42.240Z,1.17
2022-11-09T17:01:09.526Z,0.90
2022-11-09T17:03:07.737Z,1.50
2022-11-09T17:05:09.629Z,1.08
2022-11-09T17:07:11.327Z,0.68
2022-11-09T17:09:13.282Z,0.60
2022-11-09T17:11:15.556Z,0.65
2022-11-09T17:13:17.230Z,1.00
2022-11-09T17:15:20.242Z,0.90
2022-11-09T17:17:22.917Z,1.00
2022-11-09T17:19:24.836Z,0.70
2022-11-09T17:21:27.503Z,0.98
2022-11-09T17:23:29.218Z,1.17
2022-11-09T17:25:30.920Z,2.10
2022-11-09T17:27:32.625Z,1.52
2022-11-09T17:29:34.300Z,1.33
2022-11-09T17:31:36.833Z,1.30
2022-11-09T17:33:38.750Z,1.40
2022-11-09T17:35:40.436Z,1.20
2022-11-09T17:37:42.451Z,0.80
2022-11-09T17:39:44.095Z,1.08
2022-11-09T17:41:45.718Z,0.80
2022-11-09T17:43:47.424Z,1.30
2022-11-09T17:45:49.204Z,0.95
2022-11-09T17:47:50.863Z,0.90
2022-11-09T17:49:52.511Z,0.98
2022-11-09T17:51:54.274Z,0.80
2022-11-09T17:53:56.193Z,1.00
2022-11-09T17:55:58.463Z,1.33
2022-11-09T17:58:00.253Z,1.33
2022-11-09T18:00:02.196Z,0.82
2022-11-09T18:02:03.947Z,1.10
2022-11-09T18:04:06.813Z,0.70
2022-11-09T18:06:13.947Z,0.77
2022-11-09T18:08:15.575Z,1.05
2022-11-09T18:10:17.349Z,0.90
2022-11-09T18:12:18.985Z,0.80
2022-11-09T18:14:20.882Z,1.15
2022-11-09T18:16:23.002Z,1.00
2022-11-09T18:18:25.392Z,1.05
2022-11-09T18:20:27.217Z,1.30
2022-11-09T18:22:28.866Z,0.90
2022-11-09T18:24:32.068Z,1.00
2022-11-09T18:26:34.317Z,1.23
2022-11-09T18:28:36.594Z,2.22
2022-11-09T18:30:41.831Z,1.38
2022-11-09T18:32:43.641Z,0.98
2022-11-09T18:34:45.299Z,1.42
2022-11-09T18:36:46.967Z,1.35
2022-11-09T18:38:51.211Z,1.75
2022-11-09T18:41:13.466Z,2.80
2022-11-09T18:43:15.127Z,0.95
2022-11-09T18:45:16.891Z,1.83
2022-11-09T18:47:18.681Z,1.45
2022-11-09T18:49:20.336Z,3.10
2022-11-09T18:51:22.099Z,1.85
2022-11-09T18:53:25.668Z,3.60
2022-11-09T18:55:27.353Z,3.92
2022-11-09T18:57:29.112Z,3.03
2022-11-09T18:59:30.755Z,2.65
2022-11-09T19:01:32.381Z,2.03
2022-11-09T19:03:34.587Z,2.30
2022-11-09T19:05:39.690Z,2.58
2022-11-09T19:07:41.360Z,2.45
2022-11-09T19:09:43.077Z,1.77
2022-11-09T19:11:44.740Z,2.53
2022-11-09T19:13:46.532Z,2.75
2022-11-09T19:15:48.214Z,2.53
2022-11-09T19:17:50.044Z,1.75
2022-11-09T19:19:51.700Z,1.85
2022-11-09T19:21:54.810Z,1.30
2022-11-09T19:23:56.552Z,1.23
2022-11-09T19:26:01.379Z,1.20
2022-11-09T19:28:03.081Z,1.17
2022-11-09T19:30:09.374Z,1.33
2022-11-09T19:32:11.547Z,1.15
2022-11-09T19:34:15.251Z,1.25
2022-11-09T19:36:30.293Z,1.08
2022-11-09T19:38:32.280Z,1.00
2022-11-09T19:40:39.409Z,1.92
2022-11-09T19:42:41.729Z,1.20
2022-11-09T19:44:43.594Z,1.30
2022-11-09T19:46:45.584Z,1.17
2022-11-09T19:48:47.596Z,1.00
2022-11-09T19:50:50.987Z,1.70
2022-11-09T19:52:52.661Z,1.30
2022-11-09T19:54:54.300Z,1.52
2022-11-09T19:56:55.942Z,1.60
2022-11-09T19:59:00.213Z,1.67
2022-11-09T20:01:09.804Z,1.33
2022-11-09T20:03:11.672Z,1.25
2022-11-09T20:05:13.464Z,1.42
2022-11-09T20:07:15.514Z,0.95
2022-11-09T20:09:17.454Z,1.33
2022-11-09T20:11:39.568Z,1.25
2022-11-09T20:13:41.319Z,1.17
2022-11-09T20:15:43.240Z,1.58
2022-11-09T20:17:45.561Z,2.05
2022-11-09T20:19:47.366Z,1.50
2022-11-09T20:21:49.711Z,1.50
2022-11-09T20:23:51.459Z,1.50
2022-11-09T20:25:53.225Z,1.38
2022-11-09T20:27:55.262Z,2.03
2022-11-09T20:29:57.415Z,1.50
2022-11-09T20:31:59.273Z,1.70
2022-11-09T20:34:02.481Z,1.42
2022-11-09T20:36:04.804Z,1.70
2022-11-09T20:38:06.541Z,1.60
2022-11-09T20:40:08.847Z,1.50
2022-11-09T20:42:11.061Z,2.05
2022-11-09T20:44:13.548Z,1.45
2022-11-09T20:46:17.445Z,1.67
2022-11-09T20:48:46.995Z,1.33
2022-11-09T20:50:41.866Z,1.50
2022-11-09T20:52:46.733Z,1.40
2022-11-09T20:54:48.700Z,1.42
2022-11-09T20:56:50.487Z,1.23
2022-11-09T20:58:52.359Z,1.30
2022-11-09T21:01:08.613Z,0.98
2022-11-09T21:03:10.557Z,1.75
2022-11-09T21:05:12.349Z,1.30
2022-11-09T21:07:14.090Z,1.08
2022-11-09T21:09:15.873Z,1.38
2022-11-09T21:11:18.678Z,1.40
2022-11-09T21:13:20.834Z,1.45
2022-11-09T21:15:22.560Z,1.70
2022-11-09T21:17:24.337Z,1.30
2022-11-09T21:19:26.272Z,1.40
2022-11-09T21:21:32.065Z,1.52
2022-11-09T21:23:56.579Z,1.38
2022-11-09T21:26:18.083Z,2.20
2022-11-09T21:28:38.320Z,1.58
2022-11-09T21:30:40.114Z,1.50
2022-11-09T21:32:41.843Z,1.75
2022-11-09T21:34:43.715Z,2.10
2022-11-09T21:36:45.336Z,1.65
2022-11-09T21:38:47.027Z,1.50
2022-11-09T21:40:49.371Z,2.10
2022-11-09T21:42:51.316Z,2.33
2022-11-09T21:44:53.011Z,2.60
2022-11-09T21:46:54.856Z,2.33
2022-11-09T21:48:56.592Z,1.60
2022-11-09T21:50:58.236Z,1.40
2022-11-09T21:52:59.973Z,1.35
2022-11-09T21:55:01.751Z,1.63
2022-11-09T21:57:03.571Z,2.28
2022-11-09T21:59:05.473Z,1.80
2022-11-09T22:01:13.017Z,1.58
2022-11-09T22:03:14.678Z,1.95
2022-11-09T22:05:21.772Z,1.80
2022-11-09T22:07:24.618Z,2.55
2022-11-09T22:09:35.697Z,2.03
2022-11-09T22:12:00.431Z,1.80
2022-11-09T22:14:20.483Z,1.80
2022-11-09T22:16:24.010Z,2.40
2022-11-09T22:18:49.564Z,2.22
2022-11-09T22:20:54.340Z,1.92
2022-11-09T22:22:56.027Z,1.95
2022-11-09T22:24:57.722Z,1.95
2022-11-09T22:26:59.375Z,1.77
2022-11-09T22:29:01.435Z,2.10
2022-11-09T22:31:04.278Z,1.90
2022-11-09T22:33:05.919Z,2.22
2022-11-09T22:35:07.969Z,1.92
2022-11-09T22:37:09.645Z,2.30
2022-11-09T22:39:11.305Z,2.22
2022-11-09T22:41:14.650Z,2.20
2022-11-09T22:43:17.060Z,1.83
2022-11-09T22:45:18.643Z,2.03
2022-11-09T22:47:20.192Z,2.13
2022-11-09T22:49:21.844Z,1.95
2022-11-09T22:51:23.801Z,2.17
2022-11-09T22:53:25.595Z,1.95
2022-11-09T22:55:27.302Z,1.70
2022-11-09T22:57:28.995Z,1.40
2022-11-09T22:59:30.797Z,1.75
2022-11-09T23:01:32.568Z,1.30
2022-11-09T23:03:35.271Z,3.30
2022-11-09T23:05:36.916Z,1.40
2022-11-09T23:07:38.577Z,2.35
2022-11-09T23:09:40.279Z,1.70
2022-11-09T23:11:42.061Z,1.40
2022-11-09T23:13:43.920Z,1.90
2022-11-09T23:16:00.442Z,1.65
2022-11-09T23:18:20.480Z,1.60
2022-11-09T23:20:22.096Z,0.88
2022-11-09T23:22:23.811Z,2.13
2022-11-09T23:24:44.128Z,2.10
2022-11-09T23:26:45.729Z,1.70
2022-11-09T23:28:47.491Z,1.67
2022-11-09T23:30:49.366Z,1.42
2022-11-09T23:32:51.529Z,1.70
2022-11-09T23:34:53.237Z,1.85
2022-11-09T23:36:54.892Z,1.10
2022-11-09T23:38:56.620Z,2.00
2022-11-09T23:41:02.103Z,2.45
2022-11-09T23:43:10.229Z,1.73
2022-11-09T23:45:11.930Z,1.55
2022-11-09T23:47:13.676Z,1.42
2022-11-09T23:49:15.309Z,1.45
2022-11-09T23:51:18.725Z,1.55
2022-11-09T23:53:20.828Z,2.45
2022-11-09T23:55:22.904Z,1.77
2022-11-09T23:57:24.716Z,2.45
2022-11-09T23:59:26.347Z,1.77
